CheckWX is a tool to help pilots better visualize weather data.  It is not intended as a substitute for an official pre-flight weather briefing.

18:04:17 UTC

KDRI METAR
Beauregard Regional Airport
De Ridder, Louisiana, USA
Current

9 mins ago

KDRI 171755Z AUTO 33009G15KT 3SM -DZ OVC004 15/14 A2983 RMK AO2 P0001 60017 T01480141 10173 20148
Observed
Feb-17 @ 17:55 UTC
Wind
  • 330° at 9 KTS
  • Gusting to 15 KTS
Visibility
3 SM
Flight Rules
LIFR
Conditions
Light Drizzle
Cloud Levels
  • Overcast at 400' AGL
Temperature
15°C / 59°F
Dewpoint
14°C / 57°F
Humidity
94%
Altimeter
29.83" Hg
Pressure
1010.12 hPa
Current Rain
0.01"
Previous

29 mins ago

KDRI 171735Z AUTO 33009KT 7SM OVC004 16/15 A2983 RMK AO2 P0001 T01560150
Observed
Feb-17 @ 17:35 UTC
Wind
  • 330° at 9 KTS
Visibility
7 SM
Flight Rules
LIFR
Cloud Levels
  • Overcast at 400' AGL
Temperature
16°C / 61°F
Dewpoint
15°C / 59°F
Humidity
94%
Altimeter
29.83" Hg
Pressure
1010.12 hPa
Current Rain
0.01"
Previous

49 mins ago

KDRI 171715Z AUTO 32009KT 10SM OVC004 16/16 A2983 RMK AO2 P0001 T01610155
Observed
Feb-17 @ 17:15 UTC
Wind
  • 320° at 9 KTS
Visibility
10 SM
Flight Rules
LIFR
Cloud Levels
  • Overcast at 400' AGL
Temperature
16°C / 61°F
Dewpoint
16°C / 61°F
Humidity
100%
Altimeter
29.83" Hg
Pressure
1010.12 hPa
Current Rain
0.01"